TimeMST,TemperatureF,Dew PointF,Humidity,Sea Level PressureIn,VisibilityMPH,Wind Direction,Wind SpeedMPH,Gust SpeedMPH,PrecipitationIn,Events,Conditions,WindDirDegrees,DateUTC
12:56 AM,30.9,12.9,47,30.22,10.0,ESE,5.8,-,N/A,,Clear,110,2013-11-08 07:56:00
1:56 AM,28.9,10.9,47,30.22,10.0,SE,6.9,-,N/A,,Clear,140,2013-11-08 08:56:00
2:56 AM,32.0,14.0,48,30.18,10.0,ESE,6.9,-,N/A,,Clear,110,2013-11-08 09:56:00
3:56 AM,34.0,14.0,44,30.17,10.0,ESE,10.4,-,N/A,,Clear,120,2013-11-08 10:56:00
4:56 AM,32.0,17.1,54,30.18,10.0,ESE,12.7,-,N/A,,Clear,110,2013-11-08 11:56:00
5:56 AM,32.0,19.0,59,30.22,10.0,SE,9.2,-,N/A,,Clear,130,2013-11-08 12:56:00
6:56 AM,32.0,19.9,61,30.23,10.0,SE,10.4,-,N/A,,Clear,130,2013-11-08 13:56:00
7:56 AM,36.0,21.0,55,30.25,10.0,SE,10.4,-,N/A,,Clear,130,2013-11-08 14:56:00
8:56 AM,41.0,19.9,43,30.25,10.0,ESE,8.1,-,N/A,,Clear,120,2013-11-08 15:56:00
9:56 AM,48.9,21.9,35,30.22,10.0,East,8.1,-,N/A,,Clear,100,2013-11-08 16:56:00
10:56 AM,55.0,23.0,29,30.20,10.0,East,4.6,-,N/A,,Clear,90,2013-11-08 17:56:00
11:56 AM,61.0,21.9,22,30.14,10.0,ESE,4.6,-,N/A,,Clear,110,2013-11-08 18:56:00
12:56 PM,64.9,23.0,20,30.09,10.0,Calm,Calm,-,N/A,,Clear,0,2013-11-08 19:56:00
1:56 PM,68.0,23.0,18,30.04,10.0,Calm,Calm,-,N/A,,Clear,0,2013-11-08 20:56:00
2:56 PM,69.1,21.9,17,30.01,10.0,Calm,Calm,-,N/A,,Clear,0,2013-11-08 21:56:00
3:56 PM,70.0,21.9,16,29.99,10.0,Calm,Calm,-,N/A,,Clear,0,2013-11-08 22:56:00
4:56 PM,68.0,21.9,17,30.00,10.0,Calm,Calm,-,N/A,,Clear,0,2013-11-08 23:56:00
5:56 PM,57.9,21.0,24,30.04,10.0,WSW,6.9,-,N/A,,Clear,240,2013-11-09 00:56:00
6:56 PM,53.1,14.0,21,30.08,10.0,WSW,9.2,-,N/A,,Clear,250,2013-11-09 01:56:00
7:56 PM,46.0,14.0,28,30.10,10.0,SSW,5.8,-,N/A,,Clear,210,2013-11-09 02:56:00
8:56 PM,42.1,15.1,34,30.11,10.0,SSW,8.1,-,N/A,,Clear,210,2013-11-09 03:56:00
9:56 PM,41.0,17.1,38,30.10,10.0,Calm,Calm,-,N/A,,Clear,0,2013-11-09 04:56:00
10:56 PM,39.0,18.0,43,30.10,10.0,ESE,3.5,-,N/A,,Clear,120,2013-11-09 05:56:00
11:56 PM,36.0,17.1,46,30.10,10.0,Calm,Calm,-,N/A,,Clear,0,2013-11-09 06:56:00